Largo, Maryland
Current Conditions -  °F | °C
As of 7:58 PM on Thursday 27 Nov 2014 (Local Time) from KADW Reporting Station
Clear Clear  
Wind Chill: 31°   Ceiling: Unl
Heat Index: 37°   Visibility: 10mi
Dew Point: 28°   Wind: 8mph
Humidity: 69%   Direction: 300°WNW
Pressure: 30.14"   Gusts: NA
Location:  38.8158°N, 76.75°W
Report Text: KADW 280058Z AUTO 30007KT 10SM CLR 03/M02 A3014 RMK AO2 SLP216 T00291023 $
Loading
Personal Weather Stations






























Interactive Weather Map New forecast layout! Learn more

10-Day Weather Forecast

Advertisements
Track Severe Weather on mobile